Time;durP1;ratioP1;P1;durP2;ratioP2;P2;SDS_P1;SDS_P2;PMS_P1;PMS_P2;Temp;Humidity;BMP_temperature;BMP_pressure;BME280_temperature;BME280_humidity;BME280_pressure;Samples;Min_cycle;Max_cycle;Signal;HPM_P1;HPM_P2
2021/12/04 00:01:44;;;;;;;30.67;25.65;;;4.70;99.90;;;;;;4985839;28;20046;-74
2021/12/04 00:04:09;;;;;;;29.27;26.00;;;4.70;99.90;;;;;;4985952;28;20050;-74
2021/12/04 00:06:38;;;;;;;31.08;25.58;;;4.80;99.90;;;;;;4986567;28;20593;-74
2021/12/04 00:09:05;;;;;;;34.83;27.27;;;4.80;99.90;;;;;;4984444;28;20096;-74
2021/12/04 00:11:33;;;;;;;32.83;26.17;;;4.80;99.90;;;;;;4982903;28;20069;-74
2021/12/04 00:13:59;;;;;;;31.33;26.58;;;4.80;99.90;;;;;;4985660;28;20132;-74
2021/12/04 00:16:24;;;;;;;31.63;27.30;;;4.80;99.90;;;;;;4988091;28;20054;-73
2021/12/04 00:18:50;;;;;;;34.45;27.13;;;4.80;99.90;;;;;;4985134;28;20054;-74
2021/12/04 00:21:16;;;;;;;34.00;28.10;;;4.80;99.90;;;;;;4983697;28;22212;-74
2021/12/04 00:23:41;;;;;;;32.45;27.00;;;4.80;99.90;;;;;;4986178;28;20045;-74
2021/12/04 00:26:07;;;;;;;35.55;28.05;;;4.70;99.90;;;;;;4985256;28;20629;-74
2021/12/04 00:28:33;;;;;;;33.60;27.45;;;4.70;99.90;;;;;;4986925;28;20742;-74
2021/12/04 00:31:04;;;;;;;33.75;26.58;;;4.70;99.90;;;;;;4984803;28;20602;-74
2021/12/04 00:33:32;;;;;;;32.75;26.73;;;4.70;99.90;;;;;;4988618;28;20121;-74
2021/12/04 00:36:04;;;;;;;31.77;27.08;;;4.70;99.90;;;;;;4983188;28;20046;-74
2021/12/04 00:49:18;;;;;;;27.15;22.67;;;4.70;99.90;;;;;;4989349;28;20530;-74
2021/12/04 00:51:53;;;;;;;26.02;23.08;;;4.70;99.90;;;;;;4989572;28;20738;-74
2021/12/04 00:54:19;;;;;;;25.45;21.90;;;4.80;99.90;;;;;;4987500;28;20046;-74
2021/12/04 00:56:45;;;;;;;22.75;20.25;;;4.80;99.90;;;;;;4988695;28;20047;-74
2021/12/04 00:59:12;;;;;;;23.50;20.55;;;4.80;99.90;;;;;;4989164;28;20108;-73
2021/12/04 01:01:39;;;;;;;23.88;20.40;;;4.80;99.90;;;;;;4987056;28;20050;-74
2021/12/04 01:04:11;;;;;;;21.83;19.50;;;4.80;99.90;;;;;;4989353;28;20046;-74
2021/12/04 01:06:38;;;;;;;23.25;19.95;;;4.80;99.90;;;;;;4984490;28;20046;-74
2021/12/04 01:09:07;;;;;;;21.48;19.27;;;4.80;99.90;;;;;;4987531;28;20133;-74
2021/12/04 01:11:33;;;;;;;21.38;19.17;;;4.80;99.90;;;;;;4988151;28;20470;-74
2021/12/04 01:13:59;;;;;;;21.40;19.05;;;4.80;99.90;;;;;;4984626;28;20128;-74
2021/12/04 01:16:24;;;;;;;22.83;18.77;;;4.80;99.90;;;;;;4989962;28;20422;-74
2021/12/04 01:18:50;;;;;;;21.42;18.42;;;4.80;99.90;;;;;;4984331;28;20041;-74
2021/12/04 01:21:16;;;;;;;21.40;19.13;;;4.80;99.90;;;;;;4985522;28;20443;-74
2021/12/04 01:23:41;;;;;;;19.75;17.50;;;4.80;99.90;;;;;;4987922;28;20126;-74
2021/12/04 01:26:07;;;;;;;19.45;17.55;;;4.80;99.90;;;;;;4987228;28;20423;-74
2021/12/04 01:28:33;;;;;;;18.77;16.88;;;4.80;99.90;;;;;;4985471;28;20041;-74
2021/12/04 01:30:59;;;;;;;19.23;17.30;;;4.80;99.90;;;;;;4988238;28;20047;-74
2021/12/04 01:33:25;;;;;;;17.13;15.43;;;4.80;99.90;;;;;;4989869;28;20058;-74
2021/12/04 01:35:51;;;;;;;19.05;17.05;;;4.80;99.90;;;;;;4984750;28;20046;-74
2021/12/04 01:38:16;;;;;;;18.05;16.23;;;4.80;99.90;;;;;;4987420;28;20207;-74
2021/12/04 01:40:43;;;;;;;17.48;15.65;;;4.80;99.90;;;;;;4985617;28;20042;-74
2021/12/04 01:43:10;;;;;;;16.90;15.13;;;4.80;99.90;;;;;;4989136;28;20050;-74
2021/12/04 01:45:35;;;;;;;16.73;15.02;;;4.80;99.90;;;;;;4987995;28;20046;-74
2021/12/04 01:48:02;;;;;;;17.48;15.68;;;4.80;99.90;;;;;;4988039;28;20529;-74
2021/12/04 01:50:30;;;;;;;16.23;14.60;;;4.80;99.90;;;;;;4986268;28;20050;-74
2021/12/04 01:52:57;;;;;;;15.88;14.38;;;4.80;99.90;;;;;;4986744;28;20035;-74
2021/12/04 01:55:27;;;;;;;17.55;15.75;;;4.80;99.90;;;;;;4987694;28;20068;-74
2021/12/04 01:57:53;;;;;;;16.40;14.70;;;4.80;99.90;;;;;;4987515;28;20137;-74
2021/12/04 02:00:19;;;;;;;17.58;15.77;;;4.80;99.90;;;;;;4986289;28;20153;-74
2021/12/04 02:02:45;;;;;;;16.65;14.95;;;4.80;99.90;;;;;;4985767;28;20042;-74
2021/12/04 02:05:11;;;;;;;16.30;14.70;;;4.80;99.90;;;;;;4988299;28;20101;-74
2021/12/04 02:07:36;;;;;;;16.63;15.02;;;4.80;99.90;;;;;;4988796;28;20061;-73
2021/12/04 02:10:06;;;;;;;18.00;16.20;;;4.80;99.90;;;;;;4987571;28;20050;-74
2021/12/04 02:12:32;;;;;;;17.98;16.17;;;4.80;99.90;;;;;;4988719;28;20043;-74
2021/12/04 02:14:58;;;;;;;17.45;15.75;;;4.80;99.90;;;;;;4985681;28;20189;-74
2021/12/04 02:17:24;;;;;;;15.75;14.07;;;4.80;99.90;;;;;;4988772;28;20108;-74
2021/12/04 02:19:49;;;;;;;16.38;14.68;;;4.80;99.90;;;;;;4969442;28;20638;-74
2021/12/04 02:22:16;;;;;;;16.60;15.00;;;4.80;99.90;;;;;;4991300;28;20054;-74
2021/12/04 02:24:41;;;;;;;16.73;15.15;;;4.80;99.90;;;;;;4986676;28;20402;-74
2021/12/04 02:27:07;;;;;;;16.23;14.63;;;4.80;99.90;;;;;;4987371;28;20105;-74
2021/12/04 02:29:33;;;;;;;16.33;14.73;;;4.80;99.90;;;;;;4987756;28;20050;-74
2021/12/04 02:31:59;;;;;;;16.98;15.38;;;4.80;99.90;;;;;;4985435;28;20082;-74
2021/12/04 02:34:28;;;;;;;16.58;14.90;;;4.80;99.90;;;;;;4987986;28;20418;-74
2021/12/04 02:36:55;;;;;;;16.38;14.77;;;4.80;99.90;;;;;;4979461;28;20076;-74
2021/12/04 02:39:24;;;;;;;;;;;4.80;99.90;;;;;;4985326;28;20051;-74
2021/12/04 02:41:51;;;;;;;15.80;14.30;;;4.70;99.90;;;;;;4987216;28;20320;-74
2021/12/04 02:44:16;;;;;;;14.98;13.57;;;4.70;99.90;;;;;;4985189;28;20096;-74
2021/12/04 02:46:42;;;;;;;14.93;13.55;;;4.80;99.90;;;;;;4986633;28;20046;-74
2021/12/04 02:49:09;;;;;;;15.07;13.68;;;4.70;99.90;;;;;;4987489;28;20038;-74
2021/12/04 02:51:35;;;;;;;15.05;13.23;;;4.70;99.90;;;;;;4987509;28;20050;-74
2021/12/04 02:54:01;;;;;;;14.63;13.27;;;4.70;99.90;;;;;;4983265;28;20046;-74
2021/12/04 02:56:26;;;;;;;14.80;13.40;;;4.80;99.90;;;;;;4987802;28;20061;-74
2021/12/04 02:58:56;;;;;;;14.02;12.73;;;4.80;99.90;;;;;;4981944;28;20042;-74
2021/12/04 03:01:22;;;;;;;13.88;12.57;;;4.80;99.90;;;;;;4985262;28;20140;-74
2021/12/04 03:03:47;;;;;;;14.50;13.10;;;4.80;99.90;;;;;;4985746;28;20176;-74
2021/12/04 03:06:13;;;;;;;14.27;12.88;;;4.70;99.90;;;;;;4986654;28;20508;-74
2021/12/04 03:08:39;;;;;;;13.60;12.30;;;4.80;99.90;;;;;;4984584;28;20042;-74
2021/12/04 03:11:05;;;;;;;13.52;12.23;;;4.70;99.90;;;;;;4990307;28;20185;-74
2021/12/04 03:13:30;;;;;;;13.77;12.38;;;4.70;99.90;;;;;;4984302;28;20406;-74
2021/12/04 03:15:58;;;;;;;14.10;12.70;;;4.80;99.90;;;;;;4987117;28;20042;-74
2021/12/04 03:18:24;;;;;;;13.48;12.18;;;4.70;99.90;;;;;;4990801;28;20045;-74
2021/12/04 03:20:52;;;;;;;13.88;12.48;;;4.80;99.90;;;;;;4986484;28;20393;-74
2021/12/04 03:23:26;;;;;;;13.55;12.15;;;4.70;99.90;;;;;;4985784;28;20057;-74
2021/12/04 03:25:55;;;;;;;12.80;11.60;;;4.80;99.90;;;;;;4985560;28;20043;-74
2021/12/04 03:28:21;;;;;;;13.80;12.50;;;4.80;99.90;;;;;;4985810;28;20054;-74
2021/12/04 03:30:58;;;;;;;13.82;12.50;;;4.80;99.90;;;;;;4988114;28;20053;-74
2021/12/04 03:41:18;;;;;;;12.43;11.13;;;4.80;99.90;;;;;;4986780;28;20089;-74
2021/12/04 03:43:44;;;;;;;13.10;11.80;;;4.80;99.90;;;;;;4985078;28;20490;-74
2021/12/04 03:46:14;;;;;;;14.20;12.80;;;4.80;99.90;;;;;;4985639;28;20069;-74
2021/12/04 03:48:50;;;;;;;13.50;12.20;;;4.80;99.90;;;;;;4984082;28;20053;-74
2021/12/04 03:51:17;;;;;;;13.18;11.88;;;4.80;99.90;;;;;;4987611;28;20470;-74
2021/12/04 03:53:43;;;;;;;12.80;11.60;;;4.80;99.90;;;;;;4986007;28;20050;-75
2021/12/04 03:56:10;;;;;;;14.00;12.70;;;4.80;99.90;;;;;;4987945;28;20053;-74
2021/12/04 03:58:36;;;;;;;;;;;4.80;99.90;;;;;;4986273;28;20038;-74
2021/12/04 04:01:02;;;;;;;13.50;12.20;;;4.80;99.90;;;;;;4985389;28;19957;-74
2021/12/04 04:03:27;;;;;;;14.80;13.30;;;4.80;99.90;;;;;;4986358;28;20046;-74
2021/12/04 04:05:54;;;;;;;15.95;12.93;;;4.80;99.90;;;;;;4987062;28;20046;-74
2021/12/04 04:08:21;;;;;;;14.57;12.98;;;4.80;99.90;;;;;;4986080;28;20090;-74
2021/12/04 04:10:49;;;;;;;14.57;13.07;;;4.80;99.90;;;;;;4978298;28;20045;-74
2021/12/04 04:13:15;;;;;;;14.93;13.43;;;4.80;99.90;;;;;;4988596;28;20054;-74
2021/12/04 04:15:41;;;;;;;15.45;13.85;;;4.80;99.90;;;;;;4989591;28;20046;-74
2021/12/04 04:18:06;;;;;;;15.57;14.00;;;4.80;99.90;;;;;;4989367;28;20378;-74
2021/12/04 04:20:32;;;;;;;15.07;13.57;;;4.80;99.90;;;;;;4991407;28;20445;-74
2021/12/04 04:22:58;;;;;;;15.70;14.10;;;4.80;99.90;;;;;;4990330;28;20481;-74
2021/12/04 04:25:23;;;;;;;15.95;14.35;;;4.80;99.90;;;;;;4989408;28;20050;-74
2021/12/04 04:27:49;;;;;;;16.48;14.85;;;4.80;99.90;;;;;;4991876;28;20128;-74
2021/12/04 04:30:18;;;;;;;15.25;13.75;;;4.80;99.90;;;;;;4987529;28;20542;-74
2021/12/04 04:32:44;;;;;;;16.58;14.88;;;4.80;99.90;;;;;;4988413;28;20081;-74
2021/12/04 04:35:20;;;;;;;16.20;14.50;;;4.80;99.90;;;;;;4989959;28;20053;-74
2021/12/04 05:12:53;;;;;;;16.13;14.50;;;4.80;99.90;;;;;;4990615;28;20054;-74
2021/12/04 05:15:36;;;;;;;17.17;15.02;;;4.80;99.90;;;;;;4987978;28;20056;-74
2021/12/04 05:18:23;;;;;;;26.95;18.80;;;4.80;99.90;;;;;;4988991;28;20493;-74
2021/12/04 05:21:03;;;;;;;43.50;28.27;;;4.80;99.90;;;;;;4990251;28;20413;-74
2021/12/04 05:23:34;;;;;;;50.47;31.63;;;4.80;99.90;;;;;;4988062;28;20154;-74
2021/12/04 05:26:02;;;;;;;47.40;30.73;;;4.80;99.90;;;;;;4987955;28;20042;-74
2021/12/04 05:28:28;;;;;;;53.95;33.58;;;4.80;99.90;;;;;;4988300;28;20478;-74
2021/12/04 05:30:55;;;;;;;59.30;32.55;;;4.80;99.90;;;;;;4986819;28;20129;-74
2021/12/04 05:33:21;;;;;;;56.73;32.17;;;4.80;99.90;;;;;;4991063;28;20057;-74
2021/12/04 05:35:48;;;;;;;58.88;33.22;;;4.80;99.90;;;;;;4988832;28;20293;-74
2021/12/04 05:38:15;;;;;;;47.60;28.23;;;4.80;99.90;;;;;;4988162;28;20677;-74
2021/12/04 05:40:42;;;;;;;42.70;26.45;;;4.80;99.90;;;;;;4986244;28;20125;-74
2021/12/04 05:43:07;;;;;;;52.17;30.07;;;4.80;99.90;;;;;;4986249;28;20104;-74
2021/12/04 05:45:38;;;;;;;53.53;31.30;;;4.80;99.90;;;;;;4988678;28;20038;-74
2021/12/04 05:48:43;;;;;;;40.80;26.83;;;4.80;99.90;;;;;;4986613;28;20042;-74
2021/12/04 05:51:15;;;;;;;26.02;20.95;;;4.80;99.90;;;;;;4984549;28;20050;-74
2021/12/04 05:56:20;;;;;;;23.95;19.38;;;4.80;99.90;;;;;;4986732;28;20062;-74
2021/12/04 05:58:47;;;;;;;23.48;18.90;;;4.80;99.90;;;;;;4986625;28;20050;-74
2021/12/04 06:01:15;;;;;;;27.75;20.80;;;4.80;99.90;;;;;;4988871;28;20042;-74
2021/12/04 06:03:40;;;;;;;43.42;29.20;;;4.80;99.90;;;;;;4986818;28;20046;-74
2021/12/04 06:06:06;;;;;;;42.13;27.38;;;4.80;99.90;;;;;;4988903;28;20125;-74
2021/12/04 06:08:32;;;;;;;38.85;26.00;;;4.80;99.90;;;;;;4988322;28;20506;-74
2021/12/04 06:10:58;;;;;;;33.10;23.40;;;4.80;99.90;;;;;;4987501;28;20051;-74
2021/12/04 06:13:25;;;;;;;24.15;19.20;;;4.80;99.90;;;;;;4987913;28;20038;-74
2021/12/04 06:15:51;;;;;;;20.75;17.52;;;4.80;99.90;;;;;;4989909;28;20046;-74
2021/12/04 06:18:17;;;;;;;21.17;17.13;;;4.80;99.90;;;;;;4985763;28;20191;-74
2021/12/04 06:23:28;;;;;;;18.45;16.55;;;4.80;99.90;;;;;;4987723;28;20054;-74
2021/12/04 06:25:54;;;;;;;19.88;17.77;;;4.80;99.90;;;;;;4986395;28;20149;-74
2021/12/04 06:28:20;;;;;;;37.45;23.95;;;4.80;99.90;;;;;;4987039;28;20481;-74
2021/12/04 06:30:46;;;;;;;34.17;22.55;;;4.80;99.90;;;;;;4982673;28;20042;-74
2021/12/04 06:33:15;;;;;;;40.20;26.25;;;4.80;99.90;;;;;;4986170;28;20409;-74
2021/12/04 06:35:41;;;;;;;34.35;23.80;;;4.80;99.90;;;;;;4986133;28;20045;-74
2021/12/04 06:38:09;;;;;;;30.60;21.88;;;4.80;99.90;;;;;;4986234;28;20054;-74
2021/12/04 06:40:35;;;;;;;;;;;4.80;99.90;;;;;;4988170;28;20049;-74
2021/12/04 06:43:02;;;;;;;22.65;18.95;;;4.80;99.90;;;;;;4986603;28;19930;-75
2021/12/04 06:45:29;;;;;;;22.60;19.63;;;4.80;99.90;;;;;;4985634;28;21377;-74
2021/12/04 06:48:02;;;;;;;22.15;19.38;;;4.80;99.90;;;;;;4985899;28;20050;-74
2021/12/04 06:55:48;;;;;;;21.10;18.77;;;4.80;99.90;;;;;;4988091;28;20077;-75
2021/12/04 06:58:15;;;;;;;22.05;19.48;;;4.80;99.90;;;;;;4986515;28;20053;-75
2021/12/04 07:00:41;;;;;;;21.00;18.70;;;4.80;99.90;;;;;;4984660;28;20054;-74
2021/12/04 07:03:07;;;;;;;21.35;18.95;;;4.80;99.90;;;;;;4986555;28;20060;-74
2021/12/04 07:05:32;;;;;;;22.10;19.70;;;4.90;99.90;;;;;;4986353;28;20046;-75
2021/12/04 07:07:58;;;;;;;23.55;21.05;;;4.90;99.90;;;;;;4987643;28;20125;-75
2021/12/04 07:10:24;;;;;;;21.77;19.48;;;4.90;99.90;;;;;;4986976;28;20046;-74
2021/12/04 07:12:50;;;;;;;25.40;21.38;;;4.90;99.90;;;;;;4983754;28;20081;-74
2021/12/04 07:15:16;;;;;;;25.17;21.48;;;4.90;99.90;;;;;;4985737;28;20065;-74
2021/12/04 07:17:41;;;;;;;23.70;20.65;;;4.90;99.90;;;;;;4984465;28;20498;-74
2021/12/04 07:20:10;;;;;;;24.63;20.85;;;4.90;99.90;;;;;;4989475;28;20054;-74
2021/12/04 07:22:35;;;;;;;26.35;21.70;;;4.90;99.90;;;;;;4984759;28;20046;-74
2021/12/04 07:25:02;;;;;;;27.77;22.30;;;4.90;99.90;;;;;;4986307;28;20045;-75
2021/12/04 07:27:28;;;;;;;25.77;22.13;;;4.90;99.90;;;;;;4986047;28;20053;-74
2021/12/04 07:29:55;;;;;;;27.85;21.15;;;4.90;99.90;;;;;;4976262;28;20558;-74
2021/12/04 07:32:21;;;;;;;26.88;22.38;;;4.90;99.90;;;;;;4987815;28;20042;-74
2021/12/04 07:34:47;;;;;;;27.90;22.38;;;4.90;99.90;;;;;;4986445;28;20112;-74
2021/12/04 07:37:13;;;;;;;27.92;22.75;;;4.90;99.90;;;;;;4986119;28;20057;-74
2021/12/04 07:39:39;;;;;;;29.88;23.42;;;4.90;99.90;;;;;;4985739;28;20474;-74
2021/12/04 07:42:04;;;;;;;31.60;23.48;;;4.90;99.90;;;;;;4981783;28;20065;-74
2021/12/04 07:44:30;;;;;;;30.33;22.58;;;4.90;99.90;;;;;;4974533;28;20039;-74
2021/12/04 07:46:57;;;;;;;31.95;25.17;;;4.90;99.90;;;;;;4980563;28;20042;-75
2021/12/04 07:49:23;;;;;;;31.05;24.42;;;4.90;99.90;;;;;;4983668;28;20043;-75
2021/12/04 07:51:50;;;;;;;33.80;25.20;;;4.90;99.90;;;;;;4983955;28;20160;-75
2021/12/04 07:54:16;;;;;;;37.80;27.00;;;4.90;99.90;;;;;;4985410;28;20074;-75
2021/12/04 07:56:42;;;;;;;38.65;26.73;;;4.90;99.90;;;;;;4985937;28;20042;-75
2021/12/04 07:59:08;;;;;;;39.63;27.45;;;4.90;99.90;;;;;;4985380;28;20044;-75
2021/12/04 08:01:33;;;;;;;39.30;26.13;;;4.90;99.90;;;;;;4983569;28;20482;-75
2021/12/04 08:03:59;;;;;;;43.80;26.77;;;4.90;99.90;;;;;;4985018;28;20053;-75
2021/12/04 08:06:25;;;;;;;39.75;26.75;;;4.90;99.90;;;;;;4985545;28;20109;-75
2021/12/04 08:08:53;;;;;;;40.13;24.88;;;4.90;99.90;;;;;;4982577;28;20133;-75
2021/12/04 08:11:19;;;;;;;37.80;25.23;;;4.90;99.90;;;;;;4984388;28;20050;-75
2021/12/04 08:13:47;;;;;;;38.35;25.05;;;4.90;99.90;;;;;;4984736;28;20073;-75
2021/12/04 08:16:13;;;;;;;40.08;26.02;;;4.90;99.90;;;;;;4984310;28;20057;-75
2021/12/04 08:18:39;;;;;;;41.00;26.02;;;4.90;99.90;;;;;;4984899;28;20047;-75
2021/12/04 08:21:04;;;;;;;38.58;25.50;;;4.90;99.90;;;;;;4985995;28;20043;-75
2021/12/04 08:23:30;;;;;;;42.40;26.10;;;4.90;99.90;;;;;;4984689;28;20040;-75
2021/12/04 08:25:56;;;;;;;39.30;25.55;;;4.90;99.90;;;;;;4985652;28;20096;-75
2021/12/04 08:28:22;;;;;;;43.97;25.15;;;5.00;99.90;;;;;;4984637;28;20492;-75
2021/12/04 08:30:49;;;;;;;43.03;26.33;;;5.00;99.90;;;;;;4980373;28;20445;-75
2021/12/04 08:33:15;;;;;;;43.25;25.10;;;5.00;99.90;;;;;;4983966;28;20120;-75
2021/12/04 08:35:42;;;;;;;40.03;25.00;;;5.00;99.90;;;;;;4984083;28;20525;-75
2021/12/04 08:38:09;;;;;;;43.25;26.23;;;5.00;99.90;;;;;;4985541;28;20058;-75
2021/12/04 08:40:36;;;;;;;42.03;26.30;;;5.00;99.90;;;;;;4987037;28;20073;-75
2021/12/04 08:43:02;;;;;;;44.92;26.63;;;5.00;99.90;;;;;;4984971;28;20050;-75
2021/12/04 08:45:28;;;;;;;47.03;28.23;;;5.00;99.90;;;;;;4986254;28;20100;-75
2021/12/04 08:47:54;;;;;;;45.85;27.70;;;5.10;99.90;;;;;;4986474;28;20060;-75
2021/12/04 08:50:25;;;;;;;48.50;27.40;;;5.10;99.90;;;;;;4984487;28;20512;-75
2021/12/04 08:52:52;;;;;;;50.72;28.45;;;5.10;99.90;;;;;;4985113;28;20509;-75
2021/12/04 08:55:18;;;;;;;49.85;29.58;;;5.10;99.90;;;;;;4985103;28;20490;-74
2021/12/04 08:57:44;;;;;;;56.00;30.98;;;5.10;99.90;;;;;;4990045;28;20046;-75
2021/12/04 09:00:17;;;;;;;59.50;31.95;;;5.10;99.90;;;;;;4985074;28;20066;-77
2021/12/04 09:02:45;;;;;;;61.22;32.47;;;5.10;99.90;;;;;;4988525;28;20042;-76
2021/12/04 09:05:11;;;;;;;59.78;32.58;;;5.10;99.90;;;;;;4985001;28;20482;-82
2021/12/04 09:07:38;;;;;;;64.32;35.00;;;5.10;99.90;;;;;;4984033;28;20489;-76
2021/12/04 09:10:04;;;;;;;72.88;35.58;;;5.10;99.90;;;;;;4986042;28;20181;-76
2021/12/04 09:12:33;;;;;;;68.90;35.42;;;5.10;99.90;;;;;;4987210;28;20085;-73
2021/12/04 09:15:00;;;;;;;67.88;34.88;;;5.10;99.90;;;;;;4990365;28;20581;-76
2021/12/04 09:17:25;;;;;;;63.80;34.63;;;5.10;99.90;;;;;;4988224;28;20532;-74
2021/12/04 09:19:51;;;;;;;62.30;35.38;;;5.10;99.90;;;;;;4988037;28;20104;-76
2021/12/04 09:22:24;;;;;;;72.80;34.78;;;5.10;99.90;;;;;;4991638;28;20426;-74
2021/12/04 09:24:54;;;;;;;70.53;35.65;;;5.20;99.90;;;;;;4993222;28;20049;-74
2021/12/04 09:27:37;;;;;;;76.47;37.10;;;5.20;99.90;;;;;;4991518;28;20486;-74
2021/12/04 10:02:09;;;;;;;82.65;38.53;;;5.20;99.90;;;;;;4987990;28;20123;-75
2021/12/04 10:34:49;;;;;;;48.58;30.02;;;5.40;99.90;;;;;;4977283;28;20046;-75
2021/12/04 10:37:22;;;;;;;51.90;30.85;;;5.40;99.90;;;;;;4987638;28;20481;-74
2021/12/04 10:39:48;;;;;;;46.42;29.58;;;5.50;99.90;;;;;;4989458;28;20051;-74
2021/12/04 10:42:18;;;;;;;47.85;30.30;;;5.40;99.90;;;;;;4988149;28;20125;-74
2021/12/04 10:44:53;;;;;;;46.63;29.77;;;5.50;99.90;;;;;;4986680;28;20054;-75
2021/12/04 10:47:27;;;;;;;47.13;30.00;;;5.50;99.90;;;;;;4981944;28;20049;-75
2021/12/04 10:50:21;;;;;;;50.22;31.58;;;5.50;99.90;;;;;;4985395;28;20548;-75
2021/12/04 10:52:52;;;;;;;49.05;30.73;;;5.50;99.90;;;;;;4980026;28;20046;-75
2021/12/04 10:55:25;;;;;;;50.17;31.23;;;5.50;99.90;;;;;;4994936;28;20057;-77
2021/12/04 11:01:27;;;;;;;43.53;29.20;;;5.60;99.90;;;;;;4987323;28;20549;-76
2021/12/04 11:19:58;;;;;;;54.95;32.92;;;5.60;99.90;;;;;;4977217;28;20050;-74
2021/12/04 11:27:53;;;;;;;58.22;34.42;;;5.60;99.90;;;;;;4987332;28;20081;-75
2021/12/04 11:46:45;;;;;;;84.60;44.78;;;5.60;99.90;;;;;;4974930;28;20558;-79
2021/12/04 11:49:15;;;;;;;85.15;44.25;;;5.60;99.90;;;;;;4986747;28;20525;-76
2021/12/04 11:51:57;;;;;;;96.60;49.22;;;5.60;99.90;;;;;;4985858;28;20444;-77
2021/12/04 11:54:25;;;;;;;93.95;46.72;;;5.60;99.90;;;;;;4987252;28;20759;-78
2021/12/04 11:57:06;;;;;;;98.47;47.10;;;5.60;99.90;;;;;;4985935;28;20054;-77
2021/12/04 11:59:34;;;;;;;86.07;42.85;;;5.60;99.90;;;;;;4967796;28;20050;-79
2021/12/04 12:02:02;;;;;;;88.32;47.33;;;5.60;99.90;;;;;;4980861;28;20097;-78
2021/12/04 12:04:37;;;;;;;84.95;44.13;;;5.60;99.90;;;;;;4987598;28;20051;-74
2021/12/04 12:07:31;;;;;;;72.80;40.85;;;5.60;99.90;;;;;;4986320;28;20062;-76
2021/12/04 12:10:08;;;;;;;79.97;41.83;;;5.60;99.90;;;;;;4981467;28;20141;-74
2021/12/04 12:12:36;;;;;;;84.80;43.42;;;5.60;99.90;;;;;;4984917;28;20047;-79
2021/12/04 12:15:16;;;;;;;85.18;43.20;;;5.70;99.90;;;;;;4985886;28;20046;-75
2021/12/04 12:17:43;;;;;;;83.03;43.03;;;5.70;99.90;;;;;;4985385;28;20050;-75
2021/12/04 12:20:19;;;;;;;74.72;40.60;;;5.60;99.90;;;;;;4984948;28;20470;-76
2021/12/04 12:22:55;;;;;;;70.07;39.60;;;5.70;99.90;;;;;;4984639;28;20049;-75
2021/12/04 12:25:33;;;;;;;71.30;38.30;;;5.60;99.90;;;;;;4981916;28;20065;-76
2021/12/04 12:36:14;;;;;;;72.05;37.20;;;5.70;99.90;;;;;;4989974;28;20149;-76
2021/12/04 12:38:46;;;;;;;66.28;35.60;;;5.70;99.90;;;;;;4990475;28;20093;-78
2021/12/04 12:41:26;;;;;;;72.38;37.78;;;5.70;99.90;;;;;;4990469;28;20096;-77
2021/12/04 12:44:17;;;;;;;72.88;36.58;;;5.70;99.90;;;;;;4988793;28;20042;-75
2021/12/04 12:46:49;;;;;;;72.28;37.28;;;5.70;99.90;;;;;;4980489;28;20065;-76
2021/12/04 12:49:26;;;;;;;75.78;38.78;;;5.70;99.90;;;;;;4991087;28;20049;-78
2021/12/04 12:51:59;;;;;;;87.05;39.45;;;5.70;99.90;;;;;;4988271;28;20542;-76
2021/12/04 12:54:28;;;;;;;79.70;40.00;;;5.70;99.90;;;;;;4990312;28;20042;-76
2021/12/04 12:57:09;;;;;;;89.28;41.00;;;5.70;99.90;;;;;;4986832;28;20057;-77
2021/12/04 12:59:45;;;;;;;87.22;41.45;;;5.70;99.90;;;;;;4989953;28;20042;-78
2021/12/04 13:13:37;;;;;;;80.43;39.28;;;5.60;99.90;;;;;;4988079;28;20506;-74
2021/12/04 13:16:15;;;;;;;85.85;40.90;;;5.60;99.90;;;;;;4989594;28;20050;-76
2021/12/04 13:18:49;;;;;;;86.18;41.45;;;5.60;99.90;;;;;;4988627;28;20038;-76
2021/12/04 13:21:15;;;;;;;86.28;40.42;;;5.60;99.90;;;;;;4988590;28;20056;-76
2021/12/04 13:23:40;;;;;;;80.28;40.03;;;5.60;99.90;;;;;;4988703;28;20054;-76
2021/12/04 13:26:11;;;;;;;80.70;39.95;;;5.60;99.90;;;;;;4988691;28;20054;-76
2021/12/04 13:28:41;;;;;;;80.57;38.95;;;5.60;99.90;;;;;;4982156;28;20063;-76
2021/12/04 13:31:08;;;;;;;77.38;38.85;;;5.60;99.90;;;;;;4990437;28;20156;-76
2021/12/04 13:33:37;;;;;;;79.82;39.47;;;5.60;99.90;;;;;;4989085;28;20498;-79
2021/12/04 13:36:10;;;;;;;75.95;40.00;;;5.60;99.90;;;;;;4987813;28;20050;-78
2021/12/04 13:38:36;;;;;;;75.90;39.65;;;5.70;99.90;;;;;;4988168;28;20046;-76
2021/12/04 13:41:02;;;;;;;80.65;39.38;;;5.70;99.90;;;;;;4988083;28;20042;-75
2021/12/04 13:43:27;;;;;;;68.63;37.72;;;5.70;99.90;;;;;;4984296;28;20050;-77
2021/12/04 13:46:02;;;;;;;69.35;38.30;;;5.80;99.90;;;;;;4986116;28;20047;-75
2021/12/04 13:48:30;;;;;;;71.68;39.28;;;5.80;99.90;;;;;;4984251;28;20051;-74
2021/12/04 13:50:55;;;;;;;72.82;38.65;;;5.80;99.90;;;;;;4980702;28;20122;-75
2021/12/04 13:53:25;;;;;;;69.07;36.42;;;5.80;99.90;;;;;;4986366;28;20137;-75
2021/12/04 13:56:07;;;;;;;63.42;36.50;;;5.90;99.90;;;;;;4988870;28;20489;-77
2021/12/04 13:58:33;;;;;;;61.92;36.53;;;5.90;99.90;;;;;;4984773;28;20142;-77
2021/12/04 14:01:01;;;;;;;62.67;37.05;;;5.90;99.90;;;;;;4985551;28;20066;-77
2021/12/04 14:03:31;;;;;;;65.30;36.95;;;5.90;99.90;;;;;;4986954;28;20111;-77
2021/12/04 14:05:57;;;;;;;66.00;37.65;;;5.90;99.90;;;;;;4989529;28;20085;-76
2021/12/04 14:08:23;;;;;;;64.43;37.92;;;5.90;99.90;;;;;;4988075;28;20058;-77
2021/12/04 14:10:49;;;;;;;58.47;36.28;;;5.90;99.90;;;;;;4988108;28;20046;-75
2021/12/04 14:13:21;;;;;;;62.80;38.33;;;5.90;99.90;;;;;;4988120;28;20055;-76
2021/12/04 14:15:47;;;;;;;60.17;37.33;;;5.90;99.90;;;;;;4987371;28;20042;-75
2021/12/04 14:18:24;;;;;;;59.08;37.72;;;5.90;99.90;;;;;;4988613;28;20050;-75
2021/12/04 14:20:54;;;;;;;62.88;38.13;;;5.80;99.90;;;;;;4986621;28;20043;-74
2021/12/04 14:23:22;;;;;;;59.28;36.92;;;5.80;99.90;;;;;;4987568;28;20096;-75
2021/12/04 14:25:53;;;;;;;57.78;36.55;;;5.80;99.90;;;;;;4975396;28;20047;-74
2021/12/04 14:28:21;;;;;;;60.50;37.28;;;5.80;99.90;;;;;;4987184;28;20048;-74
2021/12/04 14:30:49;;;;;;;55.10;36.10;;;5.80;99.90;;;;;;4987224;28;20129;-74
2021/12/04 14:33:21;;;;;;;57.88;36.80;;;5.80;99.90;;;;;;4987929;28;20042;-74
2021/12/04 14:35:49;;;;;;;49.97;35.03;;;5.80;99.90;;;;;;4986465;28;20542;-74
2021/12/04 14:38:20;;;;;;;53.65;36.00;;;5.80;99.90;;;;;;4986933;28;20460;-75
2021/12/04 14:41:07;;;;;;;52.28;37.13;;;5.80;99.90;;;;;;4969099;28;20555;-76
2021/12/04 14:43:36;;;;;;;;;;;5.80;99.90;;;;;;4977966;28;20664;-76
2021/12/04 14:46:05;;;;;;;51.28;34.70;;;5.80;99.90;;;;;;4988109;28;19997;-75
2021/12/04 14:48:43;;;;;;;50.65;35.25;;;5.80;99.90;;;;;;4974838;28;20112;-74
2021/12/04 14:51:16;;;;;;;47.50;34.05;;;5.80;99.90;;;;;;4984284;28;20130;-76
2021/12/04 14:53:53;;;;;;;44.90;32.97;;;5.80;99.90;;;;;;4987725;28;20046;-71
2021/12/04 14:56:21;;;;;;;42.85;32.53;;;5.80;99.90;;;;;;4988539;28;20050;-74
2021/12/04 14:58:47;;;;;;;41.58;32.08;;;5.80;99.90;;;;;;4986717;28;20053;-75
2021/12/04 15:01:16;;;;;;;47.40;34.47;;;5.80;99.90;;;;;;4987694;28;20698;-74
2021/12/04 15:03:51;;;;;;;42.22;32.60;;;5.70;99.90;;;;;;4986918;28;20058;-76
2021/12/04 15:06:20;;;;;;;40.13;31.60;;;5.70;99.90;;;;;;4977465;28;20059;-75
2021/12/04 15:08:52;;;;;;;38.53;32.08;;;5.70;99.90;;;;;;4978716;28;20485;-76
2021/12/04 15:11:25;;;;;;;40.60;32.08;;;5.70;99.90;;;;;;4983508;28;20054;-77
2021/12/04 15:14:19;;;;;;;39.05;31.65;;;5.70;99.90;;;;;;4986841;28;20145;-75
2021/12/04 15:16:50;;;;;;;40.22;32.92;;;5.70;99.90;;;;;;4985900;28;20566;-74
2021/12/04 15:19:40;;;;;;;36.95;31.45;;;5.70;99.90;;;;;;4986778;28;20771;-76
2021/12/04 15:22:15;;;;;;;42.78;33.63;;;5.70;99.90;;;;;;4968148;28;20055;-75
2021/12/04 15:24:44;;;;;;;38.92;32.55;;;5.70;99.90;;;;;;4974354;28;20165;-75
2021/12/04 15:27:18;;;;;;;37.10;32.30;;;5.70;99.90;;;;;;4985654;28;20107;-74
2021/12/04 15:29:46;;;;;;;39.55;32.75;;;5.70;99.90;;;;;;4983922;28;20035;-75
2021/12/04 15:32:14;;;;;;;38.97;33.50;;;5.70;99.90;;;;;;4986315;28;20050;-75
2021/12/04 15:34:52;;;;;;;37.50;30.95;;;5.70;99.90;;;;;;4983836;28;20050;-78
2021/12/04 15:37:46;;;;;;;35.17;31.38;;;5.70;99.90;;;;;;4986625;28;20049;-75
2021/12/04 15:40:39;;;;;;;37.75;31.52;;;5.70;99.90;;;;;;4986726;28;20045;-75
2021/12/04 15:46:25;;;;;;;35.97;30.77;;;5.70;99.90;;;;;;4986435;28;20042;-79
2021/12/04 15:54:13;;;;;;;36.03;30.58;;;5.70;99.90;;;;;;4984151;28;20406;-74
2021/12/04 15:56:46;;;;;;;35.22;31.13;;;5.70;99.90;;;;;;4985892;28;20200;-75
2021/12/04 15:59:16;;;;;;;33.95;30.30;;;5.70;99.90;;;;;;4987679;28;20085;-73
2021/12/04 16:01:42;;;;;;;34.97;30.15;;;5.70;99.90;;;;;;4984114;28;20615;-74
2021/12/04 16:04:22;;;;;;;35.50;29.88;;;5.70;99.90;;;;;;4985707;28;20078;-76